createdAt,value
2019-04-07T00:00:14.319Z,70.90
2019-04-07T00:02:46.402Z,70.67
2019-04-07T00:05:16.130Z,70.70
2019-04-07T00:07:46.034Z,71.67
2019-04-07T00:10:16.174Z,70.85
2019-04-07T00:12:46.489Z,66.60
2019-04-07T00:15:17.148Z,72.87
2019-04-07T00:17:47.635Z,73.67
2019-04-07T00:20:17.531Z,75.83
2019-04-07T00:22:48.030Z,80.40
2019-04-07T00:25:19.445Z,72.47
2019-04-07T00:27:49.266Z,80.60
2019-04-07T00:30:19.806Z,80.05
2019-04-07T00:32:50.508Z,76.70
2019-04-07T00:35:31.982Z,80.90
2019-04-07T00:37:59.758Z,77.47
2019-04-07T00:40:29.639Z,81.63
2019-04-07T00:42:59.912Z,77.40
2019-04-07T00:45:30.859Z,80.32
2019-04-07T00:48:00.620Z,77.25
2019-04-07T00:50:31.718Z,77.78
2019-04-07T00:53:01.712Z,74.67
2019-04-07T00:55:42.335Z,78.25
2019-04-07T00:58:13.713Z,75.22
2019-04-07T01:00:43.646Z,72.15
2019-04-07T01:03:13.689Z,82.82
2019-04-07T01:05:43.628Z,72.95
2019-04-07T01:08:13.965Z,71.45
2019-04-07T01:10:43.926Z,75.57
2019-04-07T01:13:14.396Z,79.35
2019-04-07T01:15:44.792Z,78.15
2019-04-07T01:18:15.412Z,74.70
2019-04-07T01:20:46.745Z,72.08
2019-04-07T01:23:17.024Z,77.65
2019-04-07T01:25:47.287Z,70.30
2019-04-07T01:28:17.311Z,70.05
2019-04-07T01:30:47.166Z,70.00
2019-04-07T01:33:17.423Z,71.17
2019-04-07T01:35:57.234Z,79.32
2019-04-07T01:38:29.084Z,69.20
2019-04-07T01:41:06.309Z,74.80
2019-04-07T01:43:40.475Z,80.07
2019-04-07T01:46:15.263Z,80.97
2019-04-07T01:48:51.064Z,80.07
2019-04-07T01:51:22.489Z,74.07
2019-04-07T01:54:06.426Z,77.25
2019-04-07T01:56:58.091Z,78.97
2019-04-07T01:59:45.474Z,73.07
2019-04-07T02:04:54.516Z,67.78
2019-04-07T02:07:32.731Z,76.85
2019-04-07T02:10:16.290Z,72.00
2019-04-07T02:13:04.339Z,74.50
2019-04-07T02:15:42.843Z,73.45
2019-04-07T02:18:20.817Z,77.10
2019-04-07T02:21:02.127Z,79.85
2019-04-07T02:23:42.764Z,78.87
2019-04-07T02:26:16.804Z,78.70
2019-04-07T02:28:53.894Z,81.47
2019-04-07T02:31:44.108Z,81.10
2019-04-07T02:34:16.517Z,76.37
2019-04-07T02:36:49.813Z,75.72
2019-04-07T02:39:21.538Z,73.40
2019-04-07T02:41:53.662Z,78.87
2019-04-07T02:44:25.407Z,78.97
2019-04-07T02:46:56.925Z,77.60
2019-04-07T02:49:28.973Z,79.87
2019-04-07T02:52:14.577Z,80.55
2019-04-07T02:54:50.210Z,81.95
2019-04-07T02:57:22.149Z,74.80
2019-04-07T03:00:06.285Z,78.70
2019-04-07T03:02:54.276Z,72.47
2019-04-07T03:05:29.552Z,78.15
2019-04-07T03:08:01.634Z,81.17
2019-04-07T03:10:33.405Z,76.60
2019-04-07T03:13:07.604Z,79.95
2019-04-07T03:15:40.958Z,70.75
2019-04-07T03:18:29.191Z,77.17
2019-04-07T03:21:15.787Z,70.97
2019-04-07T03:23:48.660Z,78.07
2019-04-07T03:26:37.687Z,74.42
2019-04-07T03:29:12.117Z,74.67
2019-04-07T03:32:00.433Z,77.47
2019-04-07T03:34:41.321Z,75.75
2019-04-07T03:37:30.369Z,77.70
2019-04-07T03:39:49.286Z,75.47
2019-04-07T03:42:26.279Z,79.92
2019-04-07T03:45:06.750Z,75.20
2019-04-07T03:47:54.688Z,77.32
2019-04-07T03:50:35.171Z,70.70
2019-04-07T03:53:10.061Z,80.60
2019-04-07T03:55:59.850Z,75.52
2019-04-07T03:58:46.693Z,74.03
2019-04-07T04:01:21.964Z,77.75
2019-04-07T04:03:53.704Z,72.92
2019-04-07T04:06:42.079Z,74.12
2019-04-07T04:09:32.458Z,72.62
2019-04-07T04:12:03.953Z,79.55
2019-04-07T04:14:37.903Z,73.45
2019-04-07T04:17:08.248Z,79.47
2019-04-07T04:19:38.178Z,71.97
2019-04-07T04:22:08.000Z,68.30
2019-04-07T04:24:38.176Z,75.65
2019-04-07T04:27:14.817Z,74.60
2019-04-07T04:29:45.016Z,73.20
2019-04-07T04:32:15.291Z,79.37
2019-04-07T04:34:45.541Z,67.10
2019-04-07T04:37:49.636Z,71.72
2019-04-07T04:40:17.844Z,70.30
2019-04-07T04:42:48.596Z,73.30
2019-04-07T04:45:19.221Z,77.82
2019-04-07T04:47:49.623Z,75.52
2019-04-07T04:50:19.447Z,77.55
2019-04-07T04:52:49.243Z,70.25
2019-04-07T04:55:19.035Z,77.05
2019-04-07T04:57:49.789Z,67.70
2019-04-07T05:00:20.288Z,69.62
2019-04-07T05:02:50.242Z,63.28
2019-04-07T05:06:19.904Z,77.45
2019-04-07T05:08:54.519Z,68.70
2019-04-07T05:11:24.819Z,75.32
2019-04-07T05:13:58.371Z,76.20
2019-04-07T05:16:34.455Z,74.35
2019-04-07T05:19:06.200Z,76.77
2019-04-07T05:21:36.235Z,79.97
2019-04-07T05:24:06.822Z,77.35
2019-04-07T05:26:36.769Z,83.62
2019-04-07T05:29:06.674Z,79.37
2019-04-07T05:31:37.042Z,80.03
2019-04-07T05:34:07.566Z,73.62
2019-04-07T05:36:38.926Z,69.53
2019-04-07T05:39:10.304Z,75.25
2019-04-07T05:41:40.256Z,73.37
2019-04-07T05:44:10.275Z,75.32
2019-04-07T05:46:42.480Z,76.82
2019-04-07T05:49:12.030Z,74.32
2019-04-07T05:51:47.058Z,72.08
2019-04-07T05:54:18.818Z,74.62
2019-04-07T05:56:49.236Z,65.95
2019-04-07T05:59:19.330Z,68.72
2019-04-07T06:01:51.650Z,69.90
2019-04-07T06:04:21.708Z,69.55
2019-04-07T06:06:55.924Z,70.62
2019-04-07T06:09:24.268Z,69.67
2019-04-07T06:11:54.474Z,71.97
2019-04-07T06:14:25.953Z,70.22
2019-04-07T06:16:56.000Z,70.15
2019-04-07T06:19:26.096Z,71.35
2019-04-07T06:21:56.010Z,68.80
2019-04-07T06:24:26.888Z,73.50
2019-04-07T06:27:05.531Z,78.40
2019-04-07T06:29:35.527Z,69.58
2019-04-07T06:32:08.896Z,76.70
2019-04-07T06:34:42.554Z,72.92
2019-04-07T06:37:13.349Z,72.85
2019-04-07T06:39:43.163Z,75.05
2019-04-07T06:42:13.098Z,74.50
2019-04-07T06:44:43.518Z,69.42
2019-04-07T06:47:17.495Z,79.22
2019-04-07T06:49:57.510Z,74.58
2019-04-07T06:52:34.920Z,72.87
2019-04-07T06:55:10.325Z,75.60
2019-04-07T06:57:58.251Z,73.60
2019-04-07T07:00:38.756Z,73.37
2019-04-07T07:03:28.338Z,73.00
2019-04-07T07:06:01.114Z,70.17
2019-04-07T07:08:47.274Z,69.92
2019-04-07T07:11:27.610Z,67.50
2019-04-07T07:13:54.198Z,67.45
2019-04-07T07:16:26.147Z,69.95
2019-04-07T07:19:02.025Z,68.02
2019-04-07T07:21:39.583Z,69.80
2019-04-07T07:26:39.558Z,63.02
2019-04-07T07:29:13.260Z,69.12
2019-04-07T07:31:41.041Z,64.27
2019-04-07T07:34:11.784Z,65.87
2019-04-07T07:36:41.792Z,64.12
2019-04-07T07:39:12.907Z,63.98
2019-04-07T07:41:43.417Z,63.50
2019-04-07T07:44:13.512Z,65.60
2019-04-07T07:46:44.414Z,62.98
2019-04-07T07:49:14.789Z,62.05
2019-04-07T07:51:47.366Z,61.60
2019-04-07T07:54:16.238Z,60.80
2019-04-07T07:56:49.451Z,60.67
2019-04-07T07:59:17.838Z,61.50
2019-04-07T08:01:50.264Z,59.48
2019-04-07T08:04:20.646Z,62.43
2019-04-07T08:06:51.277Z,58.75
2019-04-07T08:09:24.024Z,57.58
2019-04-07T08:11:52.778Z,62.08
2019-04-07T08:14:22.733Z,58.20
2019-04-07T08:16:53.102Z,58.15
2019-04-07T08:19:27.349Z,57.05
2019-04-07T08:21:55.517Z,59.05
2019-04-07T08:24:26.090Z,54.90
2019-04-07T08:26:58.859Z,54.83
2019-04-07T08:29:32.313Z,57.03
2019-04-07T08:32:03.313Z,56.55
2019-04-07T08:34:33.249Z,54.98
2019-04-07T08:37:03.779Z,54.20
2019-04-07T08:39:35.447Z,52.17
2019-04-07T08:42:09.849Z,52.85
2019-04-07T08:44:37.702Z,52.88
2019-04-07T08:47:11.436Z,55.08
2019-04-07T08:49:39.185Z,54.05
2019-04-07T08:52:12.053Z,52.73
2019-04-07T08:54:41.213Z,57.65
2019-04-07T08:57:11.171Z,50.63
2019-04-07T08:59:43.137Z,52.88
2019-04-07T09:02:13.665Z,54.05
2019-04-07T09:04:47.344Z,52.70
2019-04-07T09:07:15.520Z,52.05
2019-04-07T09:09:48.496Z,48.98
2019-04-07T09:12:17.504Z,49.20
2019-04-07T09:14:47.336Z,50.03
2019-04-07T09:17:38.743Z,48.35
2019-04-07T09:20:09.135Z,48.20
2019-04-07T09:22:38.742Z,46.05
2019-04-07T09:25:17.077Z,46.45
2019-04-07T09:27:52.287Z,48.20
2019-04-07T09:30:29.832Z,45.78
2019-04-07T09:33:16.702Z,48.20
2019-04-07T09:38:24.978Z,45.38
2019-04-07T09:40:56.040Z,45.17
2019-04-07T09:43:33.734Z,43.85
2019-04-07T09:46:05.204Z,45.33
2019-04-07T09:48:48.837Z,44.08
2019-04-07T09:51:21.849Z,42.95
2019-04-07T09:53:56.661Z,41.20
2019-04-07T09:56:45.117Z,40.38
2019-04-07T09:59:22.895Z,39.63
2019-04-07T10:01:55.070Z,39.35
2019-04-07T10:04:30.294Z,39.30
2019-04-07T10:07:11.095Z,38.92
2019-04-07T10:09:48.336Z,37.33
2019-04-07T10:15:00.817Z,38.45
2019-04-07T10:17:45.167Z,40.70
2019-04-07T10:20:22.039Z,39.63
2019-04-07T10:23:09.414Z,39.00
2019-04-07T10:25:43.352Z,36.63
2019-04-07T10:28:17.656Z,34.38
2019-04-07T10:31:05.178Z,35.08
2019-04-07T10:33:51.482Z,34.05
2019-04-07T10:36:23.104Z,34.60
2019-04-07T10:39:00.846Z,34.63
2019-04-07T10:41:35.075Z,33.08
2019-04-07T10:44:24.951Z,31.27
2019-04-07T10:46:59.454Z,32.00
2019-04-07T10:49:30.869Z,29.80
2019-04-07T10:52:02.915Z,31.33
2019-04-07T10:54:39.264Z,30.02
2019-04-07T10:57:29.032Z,28.00
2019-04-07T11:00:11.024Z,28.30
2019-04-07T11:02:45.918Z,27.52
2019-04-07T11:05:17.521Z,26.50
2019-04-07T11:07:58.634Z,26.23
2019-04-07T11:10:48.492Z,25.90
2019-04-07T11:13:38.722Z,25.80
2019-04-07T11:16:22.029Z,23.40
2019-04-07T11:18:56.561Z,23.92
2019-04-07T11:21:36.717Z,24.65
2019-04-07T11:24:24.062Z,23.25
2019-04-07T11:26:59.320Z,22.15
2019-04-07T11:29:31.485Z,20.35
2019-04-07T11:32:19.933Z,20.82
2019-04-07T11:35:03.866Z,21.60
2019-04-07T11:37:48.480Z,23.10
2019-04-07T11:40:22.897Z,22.45
2019-04-07T11:43:00.336Z,21.50
2019-04-07T11:45:58.474Z,21.17
2019-04-07T11:48:27.521Z,20.08
2019-04-07T11:51:02.068Z,20.55
2019-04-07T11:53:33.559Z,20.52
2019-04-07T11:56:21.764Z,18.92
2019-04-07T11:59:11.878Z,17.82
2019-04-07T12:01:48.757Z,17.82
2019-04-07T12:04:22.145Z,19.27
2019-04-07T12:07:11.165Z,17.17
2019-04-07T12:09:52.238Z,16.62
2019-04-07T12:12:41.990Z,16.95
2019-04-07T12:15:29.150Z,17.15
2019-04-07T12:18:18.862Z,16.80
2019-04-07T12:21:08.717Z,16.45
2019-04-07T12:23:40.360Z,16.55
2019-04-07T12:26:21.281Z,17.12
2019-04-07T12:29:09.991Z,18.20
2019-04-07T12:31:59.736Z,16.35
2019-04-07T12:34:33.287Z,16.73
2019-04-07T12:37:10.338Z,15.40
2019-04-07T12:39:47.312Z,15.00
2019-04-07T12:42:35.696Z,15.23
2019-04-07T12:45:28.707Z,15.25
2019-04-07T12:48:16.794Z,15.70
2019-04-07T12:50:50.926Z,15.70
2019-04-07T12:53:32.107Z,14.47
2019-04-07T12:56:11.477Z,15.20
2019-04-07T12:58:47.487Z,15.40
2019-04-07T13:01:21.630Z,16.15
2019-04-07T13:03:55.767Z,15.50
2019-04-07T13:06:46.879Z,16.05
2019-04-07T13:09:22.551Z,15.15
2019-04-07T13:12:14.042Z,13.13
2019-04-07T13:15:02.400Z,13.48
2019-04-07T13:17:38.114Z,13.13
2019-04-07T13:20:21.246Z,12.03
2019-04-07T13:22:56.042Z,11.40
2019-04-07T13:25:31.231Z,11.68
2019-04-07T13:28:12.130Z,11.70
2019-04-07T13:30:43.506Z,11.50
2019-04-07T13:33:21.696Z,11.15
2019-04-07T13:35:56.295Z,13.30
2019-04-07T13:38:28.345Z,13.60
2019-04-07T13:41:04.371Z,14.65
2019-04-07T13:43:52.762Z,14.18
2019-04-07T13:46:35.404Z,15.00
2019-04-07T13:51:53.488Z,14.78
2019-04-07T13:54:37.226Z,13.88
2019-04-07T13:57:15.530Z,14.53
2019-04-07T13:59:57.000Z,14.05
2019-04-07T14:02:38.834Z,14.05
2019-04-07T14:05:11.237Z,14.00
2019-04-07T14:07:49.136Z,13.50
2019-04-07T14:10:24.463Z,13.93
2019-04-07T14:12:55.895Z,12.75
2019-04-07T14:15:33.158Z,13.43
2019-04-07T14:18:04.836Z,15.93
2019-04-07T14:20:53.036Z,14.75
2019-04-07T14:23:42.299Z,14.28
2019-04-07T14:26:29.707Z,14.43
2019-04-07T14:29:02.087Z,14.63
2019-04-07T14:31:34.646Z,13.70
2019-04-07T14:34:22.982Z,14.28
2019-04-07T14:36:58.975Z,14.15
2019-04-07T14:39:31.469Z,14.45
2019-04-07T14:42:07.448Z,14.98
2019-04-07T14:44:38.718Z,14.35
2019-04-07T14:47:10.758Z,14.68
2019-04-07T14:49:45.769Z,14.38
2019-04-07T14:52:19.932Z,14.10
2019-04-07T14:55:04.856Z,12.95
2019-04-07T14:57:53.476Z,15.23
2019-04-07T15:00:43.915Z,14.75
2019-04-07T15:03:13.949Z,13.65
2019-04-07T15:05:48.416Z,13.85
2019-04-07T15:08:21.579Z,14.33
2019-04-07T15:10:53.112Z,14.47
2019-04-07T15:13:27.943Z,15.05
2019-04-07T15:15:56.109Z,14.28
2019-04-07T15:18:28.636Z,14.28
2019-04-07T15:20:59.473Z,14.93
2019-04-07T15:23:32.265Z,14.30
2019-04-07T15:26:02.227Z,14.60
2019-04-07T15:28:33.797Z,13.88
2019-04-07T15:31:04.248Z,14.07
2019-04-07T15:33:35.180Z,14.43
2019-04-07T15:36:07.897Z,13.68
2019-04-07T15:38:40.222Z,13.25
2019-04-07T15:41:14.050Z,13.93
2019-04-07T15:43:41.901Z,13.72
2019-04-07T15:46:12.992Z,15.32
2019-04-07T15:48:46.590Z,14.68
2019-04-07T15:51:17.627Z,15.08
2019-04-07T15:53:51.468Z,14.93
2019-04-07T15:56:19.721Z,15.13
2019-04-07T15:58:50.871Z,15.68
2019-04-07T16:01:21.807Z,15.55
2019-04-07T16:03:53.741Z,15.58
2019-04-07T16:06:23.350Z,14.95
2019-04-07T16:08:57.296Z,15.03
2019-04-07T16:11:28.328Z,14.78
2019-04-07T16:14:00.028Z,14.78
2019-04-07T16:16:30.753Z,14.70
2019-04-07T16:19:01.384Z,14.55
2019-04-07T16:21:31.508Z,14.83
2019-04-07T16:24:01.291Z,16.12
2019-04-07T16:26:32.485Z,14.98
2019-04-07T16:29:05.334Z,15.30
2019-04-07T16:31:36.508Z,15.43
2019-04-07T16:34:08.854Z,15.35
2019-04-07T16:36:38.348Z,14.50
2019-04-07T16:39:09.998Z,15.15
2019-04-07T16:41:40.471Z,14.85
2019-04-07T16:44:13.667Z,15.05
2019-04-07T16:46:44.501Z,16.25
2019-04-07T16:49:16.967Z,15.85
2019-04-07T16:51:47.302Z,15.68
2019-04-07T16:54:17.222Z,14.73
2019-04-07T16:56:50.769Z,16.62
2019-04-07T16:59:20.841Z,16.02
2019-04-07T17:01:52.931Z,15.98
2019-04-07T17:04:22.795Z,16.25
2019-04-07T17:07:01.668Z,16.17
2019-04-07T17:09:26.499Z,16.50
2019-04-07T17:11:58.306Z,15.63
2019-04-07T17:14:32.112Z,15.23
2019-04-07T17:17:00.268Z,15.75
2019-04-07T17:19:32.063Z,15.23
2019-04-07T17:22:01.957Z,15.75
2019-04-07T17:24:34.547Z,15.83
2019-04-07T17:27:04.671Z,15.15
2019-04-07T17:29:35.194Z,15.20
2019-04-07T17:32:08.063Z,15.72
2019-04-07T17:34:41.715Z,15.23
2019-04-07T17:37:10.717Z,14.70
2019-04-07T17:39:42.291Z,14.05
2019-04-07T17:42:12.678Z,14.80
2019-04-07T17:44:56.871Z,15.23
2019-04-07T17:47:36.771Z,14.18
2019-04-07T17:50:30.409Z,16.23
2019-04-07T17:53:10.029Z,15.30
2019-04-07T17:55:58.970Z,14.60
2019-04-07T17:58:39.442Z,14.50
2019-04-07T18:01:28.641Z,15.63
2019-04-07T18:04:00.559Z,15.98
2019-04-07T18:06:44.369Z,16.42
2019-04-07T18:09:19.659Z,16.87
2019-04-07T18:11:53.417Z,16.77
2019-04-07T18:14:28.711Z,15.20
2019-04-07T18:17:04.402Z,15.78
2019-04-07T18:19:43.131Z,15.70
2019-04-07T18:22:20.453Z,15.60
2019-04-07T18:25:03.898Z,15.63
2019-04-07T18:27:38.561Z,16.32
2019-04-07T18:30:12.118Z,15.88
2019-04-07T18:33:00.857Z,15.58
2019-04-07T18:35:33.182Z,16.20
2019-04-07T18:38:20.585Z,16.60
2019-04-07T18:40:55.822Z,15.60
2019-04-07T18:43:35.776Z,15.32
2019-04-07T18:46:07.589Z,17.17
2019-04-07T18:48:45.905Z,16.55
2019-04-07T18:51:17.773Z,16.32
2019-04-07T18:54:09.941Z,16.93
2019-04-07T18:56:50.651Z,15.78
2019-04-07T18:59:28.123Z,17.25
2019-04-07T19:04:50.808Z,19.90
2019-04-07T19:07:22.544Z,19.47
2019-04-07T19:10:05.105Z,19.25
2019-04-07T19:12:30.412Z,22.58
2019-04-07T19:15:08.880Z,20.52
2019-04-07T19:17:56.706Z,21.93
2019-04-07T19:20:27.336Z,21.57
2019-04-07T19:23:02.321Z,22.07
2019-04-07T19:25:50.016Z,23.30
2019-04-07T19:28:25.140Z,22.20
2019-04-07T19:31:04.367Z,23.70
2019-04-07T19:33:56.646Z,22.98
2019-04-07T19:36:25.631Z,22.02
2019-04-07T19:39:06.870Z,22.40
2019-04-07T19:41:39.173Z,21.23
2019-04-07T19:44:34.865Z,22.20
2019-04-07T19:47:01.456Z,20.75
2019-04-07T19:49:37.562Z,23.40
2019-04-07T19:52:26.358Z,22.93
2019-04-07T19:55:07.948Z,22.80
2019-04-07T19:57:39.466Z,22.98
2019-04-07T20:00:27.683Z,22.07
2019-04-07T20:03:15.991Z,21.60
2019-04-07T20:06:00.733Z,21.52
2019-04-07T20:08:36.319Z,20.70
2019-04-07T20:11:08.120Z,21.10
2019-04-07T20:13:56.347Z,22.65
2019-04-07T20:16:31.180Z,21.45
2019-04-07T20:19:18.775Z,22.67
2019-04-07T20:21:55.221Z,22.93
2019-04-07T20:24:48.736Z,22.65
2019-04-07T20:27:22.684Z,23.45
2019-04-07T20:29:56.998Z,21.73
2019-04-07T20:32:33.700Z,22.67
2019-04-07T20:35:17.087Z,23.45
2019-04-07T20:38:03.119Z,23.85
2019-04-07T20:40:51.974Z,22.50
2019-04-07T20:43:40.614Z,23.22
2019-04-07T20:46:24.414Z,22.10
2019-04-07T20:49:13.645Z,22.30
2019-04-07T20:51:47.958Z,22.42
2019-04-07T20:54:36.220Z,22.50
2019-04-07T20:57:11.357Z,22.65
2019-04-07T20:59:51.367Z,23.35
2019-04-07T21:02:37.669Z,22.95
2019-04-07T21:05:21.948Z,23.73
2019-04-07T21:08:08.331Z,23.35
2019-04-07T21:10:41.386Z,24.75
2019-04-07T21:13:13.847Z,24.37
2019-04-07T21:16:03.728Z,24.52
2019-04-07T21:18:44.862Z,25.40
2019-04-07T21:21:27.715Z,23.73
2019-04-07T21:24:18.848Z,23.47
2019-04-07T21:27:06.053Z,25.37
2019-04-07T21:29:50.654Z,25.77
2019-04-07T21:32:29.045Z,24.67
2019-04-07T21:35:12.943Z,25.35
2019-04-07T21:38:04.363Z,26.70
2019-04-07T21:40:46.389Z,25.02
2019-04-07T21:43:28.142Z,25.50
2019-04-07T21:46:02.896Z,26.55
2019-04-07T21:48:39.892Z,26.17
2019-04-07T21:51:15.540Z,24.02
2019-04-07T21:53:47.445Z,25.05
2019-04-07T21:56:18.883Z,25.50
2019-04-07T21:58:57.984Z,25.50
2019-04-07T22:01:50.803Z,25.82
2019-04-07T22:04:34.972Z,25.32
2019-04-07T22:07:08.051Z,26.12
2019-04-07T22:09:42.848Z,24.98
2019-04-07T22:12:15.157Z,26.93
2019-04-07T22:14:47.574Z,26.23
2019-04-07T22:17:19.201Z,25.35
2019-04-07T22:19:49.178Z,26.35
2019-04-07T22:22:19.972Z,27.40
2019-04-07T22:24:52.702Z,25.60
2019-04-07T22:27:26.926Z,25.23
2019-04-07T22:29:56.563Z,27.15
2019-04-07T22:32:26.820Z,23.12
2019-04-07T22:34:58.023Z,26.33
2019-04-07T22:37:28.204Z,25.15
2019-04-07T22:40:01.714Z,25.32
2019-04-07T22:42:31.625Z,25.12
2019-04-07T22:45:02.140Z,25.52
2019-04-07T22:47:31.991Z,25.17
2019-04-07T22:50:05.154Z,25.37
2019-04-07T22:52:34.047Z,24.85
2019-04-07T22:55:08.035Z,25.02
2019-04-07T22:57:36.162Z,26.48
2019-04-07T23:00:12.854Z,22.07
2019-04-07T23:02:46.596Z,25.10
2019-04-07T23:05:16.992Z,25.27
2019-04-07T23:07:48.005Z,25.72
2019-04-07T23:10:18.530Z,26.17
2019-04-07T23:12:48.276Z,26.15
2019-04-07T23:15:18.981Z,25.68
2019-04-07T23:17:49.334Z,26.30
2019-04-07T23:20:20.129Z,25.82
2019-04-07T23:22:50.759Z,27.87
2019-04-07T23:25:22.998Z,26.37
2019-04-07T23:27:52.396Z,25.30
2019-04-07T23:30:25.694Z,25.48
2019-04-07T23:32:56.021Z,25.23
2019-04-07T23:35:25.799Z,26.12
2019-04-07T23:37:57.161Z,26.65
2019-04-07T23:40:28.068Z,26.40
2019-04-07T23:42:57.976Z,24.72
2019-04-07T23:45:27.748Z,24.12
2019-04-07T23:47:57.691Z,26.37
2019-04-07T23:50:27.543Z,25.30
2019-04-07T23:53:00.143Z,25.88
2019-04-07T23:55:30.121Z,26.37
2019-04-07T23:58:00.688Z,25.25
